createdAt,value
2018-05-21T00:01:52.262Z,69.20
2018-05-21T00:04:19.760Z,69.20
2018-05-21T00:06:48.070Z,69.10
2018-05-21T00:09:15.577Z,69.10
2018-05-21T00:11:43.117Z,69.10
2018-05-21T00:14:10.610Z,69.10
2018-05-21T00:16:38.939Z,69.10
2018-05-21T00:19:06.436Z,69.10
2018-05-21T00:21:33.969Z,69.10
2018-05-21T00:24:01.495Z,69.30
2018-05-21T00:26:29.034Z,69.10
2018-05-21T00:28:56.523Z,69.10
2018-05-21T00:31:24.014Z,69.70
2018-05-21T00:33:51.552Z,69.20
2018-05-21T00:36:19.055Z,69.20
2018-05-21T00:38:47.378Z,69.90
2018-05-21T00:41:21.553Z,69.90
2018-05-21T00:43:49.078Z,69.90
2018-05-21T00:46:17.350Z,70.40
2018-05-21T00:48:45.014Z,70.40
2018-05-21T00:51:12.556Z,70.20
2018-05-21T00:53:40.113Z,70.60
2018-05-21T00:56:07.624Z,70.40
2018-05-21T00:58:35.939Z,70.50
2018-05-21T01:01:03.483Z,70.40
2018-05-21T01:03:31.129Z,70.40
2018-05-21T01:05:58.643Z,70.30
2018-05-21T01:08:26.290Z,70.60
2018-05-21T01:10:54.614Z,70.10
2018-05-21T01:13:23.030Z,70.80
2018-05-21T01:15:50.554Z,70.70
2018-05-21T01:18:18.889Z,70.60
2018-05-21T01:20:46.466Z,70.50
2018-05-21T01:23:14.021Z,70.50
2018-05-21T01:25:41.769Z,70.70
2018-05-21T01:28:09.257Z,70.70
2018-05-21T01:30:37.605Z,71.00
2018-05-21T01:33:05.094Z,70.90
2018-05-21T01:35:32.639Z,70.70
2018-05-21T01:38:00.131Z,70.80
2018-05-21T01:40:28.428Z,70.80
2018-05-21T01:42:55.931Z,70.70
2018-05-21T01:45:23.471Z,71.10
2018-05-21T01:47:50.958Z,71.50
2018-05-21T01:50:18.498Z,71.40
2018-05-21T01:52:45.991Z,71.30
2018-05-21T01:55:13.524Z,71.50
2018-05-21T01:57:41.017Z,71.70
2018-05-21T02:00:09.335Z,71.50
2018-05-21T02:02:36.867Z,71.40
2018-05-21T02:05:04.368Z,72.00
2018-05-21T02:07:31.903Z,71.70
2018-05-21T02:09:59.391Z,72.10
2018-05-21T02:12:26.930Z,71.30
2018-05-21T02:14:54.436Z,71.60
2018-05-21T02:17:22.749Z,72.10
2018-05-21T02:19:50.242Z,72.10
2018-05-21T02:22:17.786Z,71.80
2018-05-21T02:24:45.282Z,71.50
2018-05-21T02:27:13.583Z,72.80
2018-05-21T02:29:41.083Z,73.30
2018-05-21T02:32:08.707Z,72.80
2018-05-21T02:34:36.203Z,72.00
2018-05-21T02:37:03.740Z,72.70
2018-05-21T02:39:31.249Z,72.70
2018-05-21T02:41:59.552Z,72.70
2018-05-21T02:44:27.072Z,72.70
2018-05-21T02:46:54.884Z,72.70
2018-05-21T02:49:22.388Z,72.60
2018-05-21T02:51:49.885Z,72.60
2018-05-21T02:54:17.427Z,72.60
2018-05-21T02:56:45.688Z,72.80
2018-05-21T02:59:13.218Z,72.50
2018-05-21T03:01:40.711Z,72.50
2018-05-21T03:04:08.246Z,72.80
2018-05-21T03:06:35.745Z,72.50
2018-05-21T03:09:04.066Z,73.00
2018-05-21T03:11:31.559Z,73.00
2018-05-21T03:13:59.090Z,72.90
2018-05-21T03:16:26.591Z,73.20
2018-05-21T03:18:54.894Z,72.80
2018-05-21T03:21:22.400Z,72.60
2018-05-21T03:23:49.926Z,73.10
2018-05-21T03:26:17.419Z,73.70
2018-05-21T03:28:44.923Z,73.80
2018-05-21T03:31:12.464Z,73.00
2018-05-21T03:33:39.967Z,72.70
2018-05-21T03:36:07.521Z,73.20
2018-05-21T03:38:35.016Z,73.20
2018-05-21T03:41:02.515Z,72.90
2018-05-21T03:43:30.043Z,72.90
2018-05-21T03:45:57.546Z,73.00
2018-05-21T03:48:25.076Z,72.30
2018-05-21T03:50:52.574Z,72.50
2018-05-21T03:53:20.131Z,72.30
2018-05-21T03:55:47.621Z,72.00
2018-05-21T03:58:26.979Z,71.80
2018-05-21T04:01:06.271Z,71.80
2018-05-21T04:03:45.554Z,71.70
2018-05-21T04:06:13.880Z,71.20
2018-05-21T04:08:41.385Z,71.20
2018-05-21T04:11:08.877Z,70.90
2018-05-21T04:13:36.415Z,70.70
2018-05-21T04:16:04.774Z,70.80
2018-05-21T04:18:32.308Z,70.80
2018-05-21T04:20:59.882Z,70.80
2018-05-21T04:23:27.443Z,71.00
2018-05-21T04:25:54.986Z,70.50
2018-05-21T04:35:07.325Z,69.90
2018-05-21T04:37:34.853Z,69.90
2018-05-21T04:40:02.368Z,69.60
2018-05-21T04:42:29.896Z,69.50
2018-05-21T04:44:57.394Z,68.80
2018-05-21T04:47:24.931Z,68.60
2018-05-21T04:49:52.477Z,68.50
2018-05-21T04:52:19.992Z,68.50
2018-05-21T04:54:47.543Z,67.90
2018-05-21T04:57:15.816Z,67.70
2018-05-21T04:59:43.383Z,67.60
2018-05-21T05:02:10.875Z,67.40
2018-05-21T05:04:38.446Z,67.30
2018-05-21T05:07:05.954Z,67.30
2018-05-21T05:09:33.485Z,66.90
2018-05-21T05:12:00.983Z,66.30
2018-05-21T05:14:28.528Z,66.20
2018-05-21T05:16:56.023Z,66.80
2018-05-21T05:19:23.579Z,66.30
2018-05-21T05:21:51.086Z,66.30
2018-05-21T05:24:18.627Z,66.40
2018-05-21T05:26:46.114Z,66.50
2018-05-21T05:29:13.668Z,66.50
2018-05-21T05:31:41.170Z,66.40
2018-05-21T05:34:08.684Z,66.10
2018-05-21T05:36:36.222Z,66.20
2018-05-21T05:39:03.727Z,66.10
2018-05-21T05:41:32.030Z,65.50
2018-05-21T05:43:59.549Z,65.50
2018-05-21T05:46:27.865Z,65.10
2018-05-21T05:48:55.578Z,65.10
2018-05-21T05:51:23.157Z,64.70
2018-05-21T05:53:51.492Z,64.70
2018-05-21T05:56:19.145Z,64.70
2018-05-21T05:58:46.719Z,64.70
2018-05-21T06:01:14.271Z,64.60
2018-05-21T06:03:41.802Z,64.60
2018-05-21T06:06:09.333Z,64.50
2018-05-21T06:08:37.600Z,64.00
2018-05-21T06:11:05.923Z,64.30
2018-05-21T06:13:33.439Z,64.30
2018-05-21T06:16:00.991Z,64.30
2018-05-21T06:18:29.303Z,64.20
2018-05-21T06:20:57.580Z,64.10
2018-05-21T06:23:25.119Z,64.10
2018-05-21T06:25:52.714Z,64.10
2018-05-21T06:28:20.979Z,63.50
2018-05-21T06:30:48.537Z,63.50
2018-05-21T06:33:16.035Z,63.80
2018-05-21T06:35:43.554Z,63.70
2018-05-21T06:38:11.120Z,63.80
2018-05-21T06:40:38.643Z,63.90
2018-05-21T06:43:06.967Z,64.00
2018-05-21T06:45:34.472Z,64.00
2018-05-21T06:48:02.017Z,63.50
2018-05-21T06:50:29.513Z,63.10
2018-05-21T06:52:57.086Z,63.20
2018-05-21T06:55:24.703Z,63.30
2018-05-21T06:57:53.037Z,63.50
2018-05-21T07:00:20.553Z,63.40
2018-05-21T07:02:48.874Z,62.90
2018-05-21T07:05:16.375Z,62.90
2018-05-21T07:07:43.911Z,62.70
2018-05-21T07:10:12.208Z,63.10
2018-05-21T07:12:39.762Z,62.60
2018-05-21T07:15:07.276Z,62.50
2018-05-21T07:17:34.877Z,62.60
2018-05-21T07:20:02.371Z,62.60
2018-05-21T07:22:30.667Z,61.90
2018-05-21T07:24:58.218Z,61.80
2018-05-21T07:27:25.741Z,61.70
2018-05-21T07:29:53.293Z,61.60
2018-05-21T07:32:20.792Z,60.80
2018-05-21T07:34:48.350Z,61.00
2018-05-21T07:37:15.855Z,60.50
2018-05-21T07:39:43.392Z,60.50
2018-05-21T07:42:10.904Z,60.10
2018-05-21T07:44:39.209Z,60.00
2018-05-21T07:47:06.702Z,60.00
2018-05-21T07:49:34.282Z,60.00
2018-05-21T07:52:01.781Z,60.00
2018-05-21T07:54:29.334Z,59.40
2018-05-21T07:56:56.963Z,58.80
2018-05-21T07:59:24.559Z,57.40
2018-05-21T08:01:52.067Z,57.00
2018-05-21T08:04:19.614Z,57.60
2018-05-21T08:06:47.169Z,56.80
2018-05-21T08:09:14.700Z,56.70
2018-05-21T08:11:42.230Z,56.00
2018-05-21T08:14:10.587Z,55.50
2018-05-21T08:16:38.100Z,55.50
2018-05-21T08:19:05.646Z,55.50
2018-05-21T08:21:33.163Z,55.20
2018-05-21T08:24:00.701Z,55.00
2018-05-21T08:26:29.098Z,54.70
2018-05-21T08:28:56.596Z,54.70
2018-05-21T08:31:24.140Z,54.40
2018-05-21T08:33:52.427Z,54.50
2018-05-21T08:36:20.741Z,54.60
2018-05-21T08:38:48.242Z,54.60
2018-05-21T08:41:15.774Z,54.10
2018-05-21T08:43:43.278Z,52.60
2018-05-21T08:46:11.572Z,49.70
2018-05-21T08:48:39.091Z,49.70
2018-05-21T08:51:06.639Z,47.80
2018-05-21T08:53:34.134Z,49.30
2018-05-21T08:56:02.476Z,49.00
2018-05-21T08:58:29.978Z,48.90
2018-05-21T09:00:57.481Z,48.60
2018-05-21T09:03:25.017Z,47.80
2018-05-21T09:05:52.530Z,48.60
2018-05-21T09:08:21.244Z,48.80
2018-05-21T09:10:48.757Z,47.80
2018-05-21T09:13:16.303Z,47.70
2018-05-21T09:15:43.798Z,47.80
2018-05-21T09:18:12.098Z,48.00
2018-05-21T09:20:39.624Z,47.80
2018-05-21T09:23:08.148Z,47.10
2018-05-21T09:25:35.671Z,47.00
2018-05-21T09:28:03.995Z,48.00
2018-05-21T09:30:31.516Z,47.80
2018-05-21T09:32:59.065Z,48.00
2018-05-21T09:35:27.331Z,48.10
2018-05-21T09:37:54.877Z,48.10
2018-05-21T09:40:22.786Z,48.10
2018-05-21T09:42:50.288Z,48.20
2018-05-21T09:45:17.800Z,48.20
2018-05-21T09:47:46.105Z,48.10
2018-05-21T09:50:13.598Z,48.10
2018-05-21T09:52:41.130Z,48.10
2018-05-21T09:55:08.780Z,47.20
2018-05-21T09:57:36.315Z,48.10
2018-05-21T10:00:04.570Z,48.10
2018-05-21T10:02:32.879Z,48.60
2018-05-21T10:05:00.390Z,48.10
2018-05-21T10:07:27.928Z,46.20
2018-05-21T10:09:55.422Z,48.10
2018-05-21T10:12:22.950Z,48.10
2018-05-21T10:14:50.458Z,47.80
2018-05-21T10:17:17.993Z,47.70
2018-05-21T10:19:45.577Z,47.70
2018-05-21T10:22:13.119Z,47.60
2018-05-21T10:24:41.386Z,48.20
2018-05-21T10:27:08.950Z,47.70
2018-05-21T10:29:36.574Z,47.70
2018-05-21T10:32:04.114Z,47.80
2018-05-21T10:34:31.642Z,47.70
2018-05-21T10:36:59.959Z,47.80
2018-05-21T10:39:27.510Z,47.80
2018-05-21T10:41:55.042Z,47.70
2018-05-21T10:44:24.295Z,47.70
2018-05-21T10:46:52.747Z,47.60
2018-05-21T10:49:20.364Z,47.60
2018-05-21T10:51:47.854Z,47.60
2018-05-21T10:54:15.413Z,47.60
2018-05-21T10:56:42.918Z,46.80
2018-05-21T10:59:10.469Z,47.50
2018-05-21T11:01:37.968Z,47.50
2018-05-21T11:04:06.299Z,47.40
2018-05-21T11:06:33.794Z,47.40
2018-05-21T11:09:01.338Z,47.30
2018-05-21T11:11:28.838Z,47.30
2018-05-21T11:13:56.524Z,47.20
2018-05-21T11:16:24.030Z,47.20
2018-05-21T11:18:53.913Z,47.20
2018-05-21T11:21:22.387Z,47.00
2018-05-21T11:23:50.298Z,47.00
2018-05-21T11:26:20.517Z,47.90
2018-05-21T11:28:49.939Z,46.90
2018-05-21T11:31:17.895Z,47.70
2018-05-21T11:33:46.259Z,48.20
2018-05-21T11:36:13.784Z,47.30
2018-05-21T11:38:42.047Z,46.80
2018-05-21T11:41:09.646Z,47.10
2018-05-21T11:43:38.111Z,48.40
2018-05-21T11:46:05.687Z,48.40
2018-05-21T11:48:33.291Z,48.80
2018-05-21T11:51:00.833Z,49.10
2018-05-21T11:53:31.343Z,49.40
2018-05-21T11:55:58.840Z,49.30
2018-05-21T11:58:26.352Z,49.10
2018-05-21T12:00:53.901Z,49.40
2018-05-21T12:03:21.394Z,50.00
2018-05-21T12:05:49.675Z,50.50
2018-05-21T12:08:17.981Z,50.50
2018-05-21T12:10:46.270Z,50.50
2018-05-21T12:13:13.781Z,50.20
2018-05-21T12:15:41.392Z,50.30
2018-05-21T12:18:08.972Z,50.40
2018-05-21T12:20:36.424Z,50.80
2018-05-21T12:23:04.941Z,50.60
2018-05-21T12:25:33.311Z,51.30
2018-05-21T12:28:00.805Z,51.30
2018-05-21T12:30:28.455Z,50.70
2018-05-21T12:32:55.951Z,51.00
2018-05-21T12:35:23.478Z,50.70
2018-05-21T12:37:50.968Z,51.40
2018-05-21T12:40:18.572Z,51.40
2018-05-21T12:42:46.844Z,51.60
2018-05-21T12:45:17.326Z,51.60
2018-05-21T12:47:44.776Z,51.60
2018-05-21T12:50:12.436Z,49.30
2018-05-21T12:52:40.036Z,47.40
2018-05-21T12:55:07.545Z,47.40
2018-05-21T12:57:35.104Z,46.70
2018-05-21T13:00:02.614Z,45.50
2018-05-21T13:02:30.154Z,43.60
2018-05-21T13:04:57.680Z,42.30
2018-05-21T13:07:25.207Z,41.80
2018-05-21T13:09:52.705Z,39.50
2018-05-21T13:12:20.270Z,39.20
2018-05-21T13:14:47.765Z,39.30
2018-05-21T13:17:15.294Z,39.10
2018-05-21T13:19:42.786Z,37.80
2018-05-21T13:22:10.322Z,37.30
2018-05-21T13:24:37.814Z,36.00
2018-05-21T13:27:05.360Z,34.70
2018-05-21T13:29:32.873Z,33.90
2018-05-21T13:32:00.422Z,31.80
2018-05-21T13:34:27.920Z,32.90
2018-05-21T13:36:55.508Z,32.10
2018-05-21T13:39:23.002Z,32.20
2018-05-21T13:41:50.511Z,32.20
2018-05-21T13:44:19.718Z,30.40
2018-05-21T13:46:47.277Z,28.70
2018-05-21T13:49:14.826Z,30.00
2018-05-21T13:51:42.339Z,29.10
2018-05-21T13:54:09.865Z,29.20
2018-05-21T13:56:38.141Z,29.70
2018-05-21T13:59:06.453Z,27.50
2018-05-21T14:01:33.959Z,27.50
2018-05-21T14:04:01.504Z,28.50
2018-05-21T14:06:29.223Z,28.00
2018-05-21T14:08:56.764Z,26.50
2018-05-21T14:11:25.020Z,27.20
2018-05-21T14:13:52.573Z,27.30
2018-05-21T14:16:20.108Z,25.80
2018-05-21T14:18:47.701Z,25.90
2018-05-21T14:21:15.207Z,25.50
2018-05-21T14:23:42.749Z,25.50
2018-05-21T14:26:11.016Z,25.10
2018-05-21T14:28:38.587Z,25.10
2018-05-21T14:31:06.844Z,24.30
2018-05-21T14:33:35.122Z,23.30
2018-05-21T14:36:03.450Z,23.30
2018-05-21T14:38:30.945Z,23.20
2018-05-21T14:40:58.521Z,23.40
2018-05-21T14:43:26.787Z,22.20
2018-05-21T14:45:54.373Z,22.20
2018-05-21T14:48:21.919Z,22.20
2018-05-21T14:50:50.993Z,22.20
2018-05-21T14:53:18.492Z,22.30
2018-05-21T14:55:46.041Z,22.00
2018-05-21T14:58:13.539Z,22.30
2018-05-21T15:00:41.075Z,22.20
2018-05-21T15:03:08.574Z,21.70
2018-05-21T15:05:36.879Z,22.40
2018-05-21T15:08:05.241Z,22.10
2018-05-21T15:10:33.470Z,21.60
2018-05-21T15:13:00.994Z,21.60
2018-05-21T15:15:28.538Z,21.00
2018-05-21T15:17:56.028Z,20.30
2018-05-21T15:20:23.690Z,20.30
2018-05-21T15:22:51.207Z,19.30
2018-05-21T15:25:19.114Z,20.80
2018-05-21T15:27:46.629Z,20.70
2018-05-21T15:30:14.949Z,19.60
2018-05-21T15:32:42.554Z,19.50
2018-05-21T15:35:10.088Z,19.60
2018-05-21T15:37:37.648Z,19.10
2018-05-21T15:40:05.236Z,19.30
2018-05-21T15:42:32.782Z,19.60
2018-05-21T15:45:00.882Z,18.40
2018-05-21T15:47:28.419Z,19.00
2018-05-21T15:49:55.951Z,17.40
2018-05-21T15:52:23.515Z,18.60
2018-05-21T15:54:51.063Z,18.30
2018-05-21T15:57:18.609Z,16.90
2018-05-21T15:59:46.867Z,17.00
2018-05-21T16:02:14.423Z,16.80
2018-05-21T16:04:41.920Z,17.40
2018-05-21T16:07:09.987Z,16.60
2018-05-21T16:09:37.508Z,15.70
2018-05-21T16:12:06.276Z,17.60
2018-05-21T16:14:33.839Z,16.60
2018-05-21T16:17:01.413Z,17.30
2018-05-21T16:19:30.804Z,17.50
2018-05-21T16:21:58.397Z,18.80
2018-05-21T16:24:26.008Z,20.00
2018-05-21T16:26:53.616Z,21.70
2018-05-21T16:29:21.994Z,24.70
2018-05-21T16:31:50.131Z,24.60
2018-05-21T16:34:17.655Z,26.30
2018-05-21T16:36:45.271Z,26.20
2018-05-21T16:39:12.783Z,27.50
2018-05-21T16:41:40.376Z,28.20
2018-05-21T16:44:09.049Z,29.20
2018-05-21T16:46:36.606Z,30.00
2018-05-21T16:49:04.166Z,30.60
2018-05-21T16:51:31.720Z,31.60
2018-05-21T16:53:59.429Z,32.20
2018-05-21T16:56:26.900Z,32.90
2018-05-21T16:58:54.438Z,33.40
2018-05-21T17:01:22.013Z,34.00
2018-05-21T17:03:50.303Z,35.40
2018-05-21T17:06:18.047Z,35.40
2018-05-21T17:08:46.431Z,35.00
2018-05-21T17:11:14.714Z,35.00
2018-05-21T17:13:42.252Z,34.90
2018-05-21T17:16:09.751Z,36.00
2018-05-21T17:18:37.293Z,36.40
2018-05-21T17:21:05.568Z,36.40
2018-05-21T17:23:33.123Z,36.40
2018-05-21T17:26:01.410Z,37.50
2018-05-21T17:28:28.963Z,37.50
2018-05-21T17:30:56.462Z,37.80
2018-05-21T17:33:24.022Z,37.90
2018-05-21T17:35:51.547Z,38.00
2018-05-21T17:38:19.226Z,38.50
2018-05-21T17:40:46.893Z,38.80
2018-05-21T17:43:14.451Z,38.70
2018-05-21T17:45:41.967Z,39.20
2018-05-21T17:48:09.552Z,39.40
2018-05-21T17:50:37.065Z,39.70
2018-05-21T17:53:04.587Z,39.70
2018-05-21T17:55:32.141Z,40.10
2018-05-21T17:57:59.687Z,40.40
2018-05-21T18:00:27.253Z,40.20
2018-05-21T18:02:54.785Z,40.30
2018-05-21T18:05:23.137Z,40.80
2018-05-21T18:07:50.636Z,40.80
2018-05-21T18:10:18.968Z,41.20
2018-05-21T18:12:46.480Z,41.20
2018-05-21T18:15:14.056Z,41.70
2018-05-21T18:17:42.159Z,41.60
2018-05-21T18:20:09.714Z,42.00
2018-05-21T18:22:37.222Z,42.00
2018-05-21T18:25:04.783Z,42.40
2018-05-21T18:27:32.317Z,42.30
2018-05-21T18:30:00.665Z,43.80
2018-05-21T18:32:28.187Z,42.90
2018-05-21T18:34:56.368Z,42.90
2018-05-21T18:37:23.891Z,43.70
2018-05-21T18:39:52.204Z,44.00
2018-05-21T18:42:19.749Z,43.90
2018-05-21T18:44:47.328Z,43.70
2018-05-21T18:47:15.758Z,43.80
2018-05-21T18:49:43.297Z,44.20
2018-05-21T18:52:10.843Z,44.20
2018-05-21T18:54:38.446Z,45.40
2018-05-21T18:57:06.791Z,46.40
2018-05-21T18:59:34.343Z,45.80
2018-05-21T19:02:01.943Z,45.80
2018-05-21T19:04:30.261Z,45.60
2018-05-21T19:06:57.844Z,45.60
2018-05-21T19:09:25.362Z,45.50
2018-05-21T19:11:52.959Z,45.50
2018-05-21T19:14:20.483Z,45.30
2018-05-21T19:16:48.023Z,45.30
2018-05-21T19:19:17.170Z,46.50
2018-05-21T19:21:44.703Z,46.30
2018-05-21T19:24:12.241Z,46.90
2018-05-21T19:26:40.577Z,46.80
2018-05-21T19:29:08.089Z,46.70
2018-05-21T19:31:35.621Z,47.40
2018-05-21T19:34:03.168Z,46.90
2018-05-21T19:36:30.677Z,46.90
2018-05-21T19:38:58.256Z,47.00
2018-05-21T19:41:25.767Z,47.40
2018-05-21T19:43:53.312Z,47.30
2018-05-21T19:46:20.816Z,47.20
2018-05-21T19:48:48.373Z,47.50
2018-05-21T19:51:15.872Z,47.60
2018-05-21T19:53:43.428Z,47.50
2018-05-21T19:56:13.169Z,47.70
2018-05-21T19:58:41.492Z,48.00
2018-05-21T20:01:09.013Z,48.00
2018-05-21T20:03:37.358Z,48.20
2018-05-21T20:06:06.099Z,48.20
2018-05-21T20:08:33.649Z,48.40
2018-05-21T20:11:01.169Z,48.20
2018-05-21T20:13:28.681Z,48.40
2018-05-21T20:15:56.231Z,48.80
2018-05-21T20:18:32.580Z,48.40
2018-05-21T20:21:00.942Z,48.60
2018-05-21T20:23:28.471Z,48.90
2018-05-21T20:25:56.056Z,48.90
2018-05-21T20:28:23.553Z,49.00
2018-05-21T20:30:51.893Z,49.00
2018-05-21T20:33:19.396Z,49.20
2018-05-21T20:35:46.958Z,49.40
2018-05-21T20:38:14.484Z,49.40
2018-05-21T20:40:42.027Z,49.60
2018-05-21T20:43:09.530Z,49.80
2018-05-21T20:45:37.074Z,49.90
2018-05-21T20:48:04.591Z,50.00
2018-05-21T20:50:32.143Z,49.70
2018-05-21T20:52:59.643Z,50.50
2018-05-21T20:55:27.189Z,50.60
2018-05-21T20:57:54.713Z,50.50
2018-05-21T21:00:22.213Z,50.50
2018-05-21T21:02:50.539Z,50.40
2018-05-21T21:05:18.112Z,50.40
2018-05-21T21:07:45.615Z,50.30
2018-05-21T21:10:13.154Z,50.30
2018-05-21T21:12:40.699Z,51.30
2018-05-21T21:15:08.209Z,51.60
2018-05-21T21:17:35.758Z,51.10
2018-05-21T21:20:03.263Z,51.30
2018-05-21T21:22:30.804Z,51.60
2018-05-21T21:24:58.307Z,51.70
2018-05-21T21:27:25.847Z,51.90
2018-05-21T21:29:53.343Z,52.10
2018-05-21T21:32:21.714Z,52.10
2018-05-21T21:34:49.415Z,52.10
2018-05-21T21:37:16.931Z,52.80
2018-05-21T21:39:44.428Z,52.80
2018-05-21T21:42:11.955Z,53.10
2018-05-21T21:44:40.333Z,53.40
2018-05-21T21:47:07.818Z,53.30
2018-05-21T21:49:35.343Z,54.00
2018-05-21T21:52:02.881Z,53.90
2018-05-21T21:54:30.378Z,54.60
2018-05-21T21:56:57.913Z,54.60
2018-05-21T21:59:25.475Z,55.10
2018-05-21T22:01:52.979Z,55.70
2018-05-21T22:04:20.563Z,55.90
2018-05-21T22:06:48.078Z,55.80
2018-05-21T22:09:16.375Z,55.70
2018-05-21T22:11:43.871Z,55.60
2018-05-21T22:14:11.415Z,56.00
2018-05-21T22:16:38.944Z,56.80
2018-05-21T22:19:06.621Z,56.50
2018-05-21T22:21:34.891Z,56.80
2018-05-21T22:24:02.448Z,57.00
2018-05-21T22:26:30.511Z,56.10
2018-05-21T22:28:58.010Z,56.90
2018-05-21T22:31:25.540Z,56.90
2018-05-21T22:33:53.045Z,57.60
2018-05-21T22:36:20.593Z,57.80
2018-05-21T22:38:48.080Z,58.20
2018-05-21T22:41:15.629Z,58.50
2018-05-21T22:43:43.139Z,58.50
2018-05-21T22:46:10.684Z,59.00
2018-05-21T22:48:38.187Z,59.20
2018-05-21T22:51:05.732Z,59.80
2018-05-21T22:53:33.235Z,59.80
2018-05-21T22:56:01.542Z,60.80
2018-05-21T22:58:29.048Z,60.80
2018-05-21T23:00:56.595Z,60.60
2018-05-21T23:03:24.083Z,60.50
2018-05-21T23:05:51.631Z,60.80
2018-05-21T23:08:19.215Z,60.80
2018-05-21T23:10:46.705Z,60.80
2018-05-21T23:13:14.247Z,61.40
2018-05-21T23:15:41.738Z,61.40
2018-05-21T23:18:09.368Z,61.70
2018-05-21T23:20:36.858Z,61.70
2018-05-21T23:23:04.399Z,61.50
2018-05-21T23:25:31.886Z,62.10
2018-05-21T23:27:59.419Z,61.90
2018-05-21T23:30:26.913Z,62.00
2018-05-21T23:32:54.437Z,62.00
2018-05-21T23:35:21.966Z,62.40
2018-05-21T23:37:49.498Z,62.60
2018-05-21T23:40:16.999Z,62.40
2018-05-21T23:42:44.542Z,62.50
2018-05-21T23:45:12.042Z,62.80
2018-05-21T23:47:39.574Z,62.60
2018-05-21T23:50:07.071Z,62.30
2018-05-21T23:52:34.640Z,62.90
2018-05-21T23:55:02.150Z,63.00
2018-05-21T23:57:29.660Z,63.00
2018-05-21T23:59:57.200Z,62.70
